createdAt,value
2023-02-18T00:00:10.180Z,18.48
2023-02-18T00:03:12.211Z,18.38
2023-02-18T00:06:35.489Z,18.33
2023-02-18T00:09:39.129Z,18.29
2023-02-18T00:12:42.869Z,18.18
2023-02-18T00:15:47.266Z,18.12
2023-02-18T00:18:49.730Z,17.97
2023-02-18T00:21:51.943Z,17.94
2023-02-18T00:24:54.028Z,17.92
2023-02-18T00:27:56.078Z,17.85
2023-02-18T00:30:59.031Z,17.92
2023-02-18T00:34:01.444Z,17.79
2023-02-18T00:37:04.225Z,17.78
2023-02-18T00:40:07.106Z,17.73
2023-02-18T00:43:10.759Z,17.69
2023-02-18T00:46:13.364Z,17.67
2023-02-18T00:49:16.206Z,17.57
2023-02-18T00:52:18.234Z,17.59
2023-02-18T00:55:20.279Z,17.43
2023-02-18T00:58:22.277Z,17.45
2023-02-18T01:01:24.660Z,17.43
2023-02-18T01:04:26.763Z,17.39
2023-02-18T01:07:30.565Z,17.43
2023-02-18T01:10:33.043Z,17.53
2023-02-18T01:13:36.058Z,17.55
2023-02-18T01:16:38.194Z,17.57
2023-02-18T01:19:44.031Z,17.54
2023-02-18T01:22:47.866Z,17.45
2023-02-18T01:25:50.177Z,17.43
2023-02-18T01:28:52.229Z,17.33
2023-02-18T01:31:55.686Z,17.15
2023-02-18T01:34:57.795Z,17.16
2023-02-18T01:38:02.921Z,17.24
2023-02-18T01:41:05.470Z,17.01
2023-02-18T01:44:20.572Z,17.23
2023-02-18T01:47:23.721Z,17.18
2023-02-18T01:50:28.138Z,17.26
2023-02-18T01:54:02.060Z,17.22
2023-02-18T01:57:08.087Z,17.11
2023-02-18T02:00:17.330Z,17.06
2023-02-18T02:03:21.906Z,17.05
2023-02-18T02:06:25.544Z,16.96
2023-02-18T02:09:31.238Z,16.90
2023-02-18T02:12:36.021Z,16.86
2023-02-18T02:16:01.260Z,16.85
2023-02-18T02:19:31.224Z,16.84
2023-02-18T02:22:56.194Z,16.83
2023-02-18T02:26:53.923Z,16.80
2023-02-18T02:29:56.864Z,16.78
2023-02-18T02:33:22.117Z,16.77
2023-02-18T02:36:42.386Z,16.73
2023-02-18T02:40:15.835Z,16.73
2023-02-18T02:44:09.219Z,16.66
2023-02-18T02:47:33.067Z,16.67
2023-02-18T02:50:45.169Z,16.68
2023-02-18T02:53:47.239Z,16.71
2023-02-18T02:56:49.988Z,16.60
2023-02-18T03:00:02.367Z,16.57
2023-02-18T03:03:12.359Z,16.67
2023-02-18T03:07:02.544Z,16.61
2023-02-18T03:10:35.432Z,16.63
2023-02-18T03:14:14.346Z,16.58
2023-02-18T03:17:30.206Z,16.47
2023-02-18T03:20:40.075Z,16.37
2023-02-18T03:23:58.967Z,16.44
2023-02-18T03:27:09.943Z,16.39
2023-02-18T03:30:21.758Z,16.46
2023-02-18T03:33:30.255Z,16.50
2023-02-18T03:36:35.612Z,16.47
2023-02-18T03:39:41.982Z,16.45
2023-02-18T03:42:45.614Z,16.38
2023-02-18T03:45:47.638Z,16.37
2023-02-18T03:48:50.272Z,16.38
2023-02-18T03:51:52.421Z,16.35
2023-02-18T03:54:54.492Z,16.34
2023-02-18T03:57:56.629Z,16.31
2023-02-18T04:00:58.688Z,16.28
2023-02-18T04:04:00.811Z,16.20
2023-02-18T04:07:03.001Z,16.26
2023-02-18T04:10:06.487Z,16.26
2023-02-18T04:13:08.577Z,16.21
2023-02-18T04:16:10.648Z,16.24
2023-02-18T04:19:12.635Z,16.25
2023-02-18T04:22:15.993Z,16.29
2023-02-18T04:25:18.137Z,16.23
2023-02-18T04:28:20.134Z,16.21
2023-02-18T04:31:22.570Z,16.14
2023-02-18T04:34:24.763Z,16.14
2023-02-18T04:37:26.825Z,16.07
2023-02-18T04:40:30.830Z,16.11
2023-02-18T04:43:32.909Z,16.07
2023-02-18T04:46:35.981Z,16.11
2023-02-18T04:49:38.154Z,16.13
2023-02-18T04:52:40.327Z,16.15
2023-02-18T04:55:42.448Z,16.14
2023-02-18T04:58:44.496Z,16.02
2023-02-18T05:01:46.838Z,16.14
2023-02-18T05:04:49.005Z,16.08
2023-02-18T05:07:51.040Z,16.30
2023-02-18T05:10:53.000Z,16.14
2023-02-18T05:13:54.955Z,16.17
2023-02-18T05:16:58.412Z,16.79
2023-02-18T05:20:00.709Z,17.15
2023-02-18T05:23:02.879Z,17.18
2023-02-18T05:26:05.321Z,17.20
2023-02-18T05:29:07.570Z,17.37
2023-02-18T05:32:09.860Z,17.64
2023-02-18T05:35:12.102Z,17.67
2023-02-18T05:38:14.203Z,17.75
2023-02-18T05:41:16.461Z,17.85
2023-02-18T05:44:30.598Z,17.88
2023-02-18T05:47:32.676Z,18.15
2023-02-18T05:50:34.899Z,18.22
2023-02-18T05:53:36.975Z,18.02
2023-02-18T05:56:39.046Z,17.92
2023-02-18T05:59:41.417Z,17.95
2023-02-18T06:02:43.660Z,18.11
2023-02-18T06:05:45.832Z,17.92
2023-02-18T06:08:47.888Z,18.23
2023-02-18T06:11:50.086Z,18.23
2023-02-18T06:14:52.114Z,18.15
2023-02-18T06:17:54.262Z,18.10
2023-02-18T06:20:56.323Z,18.02
2023-02-18T06:23:58.535Z,18.01
2023-02-18T06:27:00.746Z,17.85
2023-02-18T06:30:03.050Z,17.61
2023-02-18T06:33:05.472Z,17.71
2023-02-18T06:36:11.871Z,17.51
2023-02-18T06:39:14.055Z,17.65
2023-02-18T06:42:16.160Z,17.63
2023-02-18T06:45:18.402Z,17.75
2023-02-18T06:48:20.521Z,17.72
2023-02-18T06:51:22.536Z,17.92
2023-02-18T06:54:25.527Z,18.17
2023-02-18T06:57:27.529Z,18.46
2023-02-18T07:00:31.039Z,18.65
2023-02-18T07:03:33.531Z,18.76
2023-02-18T07:06:35.776Z,19.03
2023-02-18T07:09:38.099Z,19.19
2023-02-18T07:12:40.106Z,19.31
2023-02-18T07:15:42.125Z,19.43
2023-02-18T07:18:46.534Z,19.39
2023-02-18T07:21:48.565Z,19.34
2023-02-18T07:24:54.028Z,19.26
2023-02-18T07:27:56.126Z,19.36
2023-02-18T07:30:58.239Z,19.25
2023-02-18T07:34:00.666Z,19.14
2023-02-18T07:37:02.942Z,19.10
2023-02-18T07:40:07.878Z,18.95
2023-02-18T07:43:09.933Z,18.97
2023-02-18T07:46:15.287Z,19.05
2023-02-18T07:49:17.511Z,19.07
2023-02-18T07:52:19.540Z,19.14
2023-02-18T07:55:21.933Z,19.20
2023-02-18T07:58:28.592Z,19.24
2023-02-18T08:01:31.156Z,19.28
2023-02-18T08:04:34.033Z,19.39
2023-02-18T08:07:36.132Z,19.36
2023-02-18T08:10:38.169Z,19.36
2023-02-18T08:13:40.207Z,19.40
2023-02-18T08:16:42.319Z,19.34
2023-02-18T08:19:44.340Z,19.38
2023-02-18T08:22:46.389Z,19.56
2023-02-18T08:25:51.806Z,19.55
2023-02-18T08:28:54.181Z,19.41
2023-02-18T08:31:58.321Z,19.44
2023-02-18T08:35:01.202Z,19.42
2023-02-18T08:38:03.174Z,19.34
2023-02-18T08:41:09.821Z,19.55
2023-02-18T08:44:12.033Z,19.75
2023-02-18T08:48:16.690Z,19.96
2023-02-18T08:50:36.751Z,20.19
2023-02-18T08:53:39.138Z,20.32
2023-02-18T08:56:41.848Z,20.40
2023-02-18T08:59:44.036Z,20.47
2023-02-18T09:02:47.617Z,20.52
2023-02-18T09:05:49.807Z,20.57
2023-02-18T09:08:51.883Z,20.48
2023-02-18T09:11:53.951Z,20.50
2023-02-18T09:14:56.042Z,20.62
2023-02-18T09:17:59.906Z,20.77
2023-02-18T09:21:02.404Z,20.67
2023-02-18T09:24:04.638Z,20.56
2023-02-18T09:27:07.587Z,20.47
2023-02-18T09:30:10.836Z,20.54
2023-02-18T09:33:13.183Z,20.58
2023-02-18T09:36:15.603Z,20.52
2023-02-18T09:39:18.924Z,20.59
2023-02-18T09:42:28.292Z,20.71
2023-02-18T09:45:30.557Z,20.69
2023-02-18T09:48:36.315Z,20.61
2023-02-18T09:51:38.380Z,20.44
2023-02-18T09:54:41.078Z,20.54
2023-02-18T09:57:50.304Z,20.64
2023-02-18T10:01:26.036Z,20.68
2023-02-18T10:04:40.996Z,20.54
2023-02-18T10:07:46.038Z,20.63
2023-02-18T10:10:48.292Z,20.47
2023-02-18T10:13:50.939Z,20.42
2023-02-18T10:16:54.158Z,20.48
2023-02-18T10:19:58.509Z,20.58
2023-02-18T10:23:05.465Z,20.40
2023-02-18T10:26:15.078Z,20.45
2023-02-18T10:29:22.137Z,20.44
2023-02-18T10:32:47.061Z,20.70
2023-02-18T10:36:04.430Z,21.09
2023-02-18T10:39:21.610Z,21.56
2023-02-18T10:43:04.134Z,21.91
2023-02-18T10:46:24.227Z,21.90
2023-02-18T10:49:52.990Z,21.92
2023-02-18T10:52:59.610Z,21.95
2023-02-18T10:56:02.243Z,21.82
2023-02-18T10:59:21.440Z,21.86
2023-02-18T11:02:24.838Z,22.00
2023-02-18T11:05:29.828Z,21.94
2023-02-18T11:08:42.795Z,21.84
2023-02-18T11:11:50.625Z,21.75
2023-02-18T11:15:24.710Z,21.70
2023-02-18T11:18:31.918Z,21.56
2023-02-18T11:21:38.570Z,21.20
2023-02-18T11:24:40.748Z,21.22
2023-02-18T11:27:46.391Z,21.07
2023-02-18T11:30:54.289Z,20.92
2023-02-18T11:34:01.189Z,20.89
2023-02-18T11:37:32.611Z,20.85
2023-02-18T11:40:36.737Z,20.81
2023-02-18T11:43:43.092Z,20.78
2023-02-18T11:47:05.528Z,20.85
2023-02-18T11:50:10.429Z,20.94
2023-02-18T11:53:38.513Z,20.77
2023-02-18T11:56:40.583Z,20.66
2023-02-18T11:59:43.066Z,20.51
2023-02-18T12:02:45.356Z,20.69
2023-02-18T12:05:48.239Z,20.95
2023-02-18T12:08:56.202Z,20.73
2023-02-18T12:12:07.178Z,20.65
2023-02-18T12:15:14.176Z,20.46
2023-02-18T12:18:19.954Z,20.43
2023-02-18T12:21:58.495Z,20.44
2023-02-18T12:25:06.099Z,20.37
2023-02-18T12:28:25.588Z,20.47
2023-02-18T12:32:05.703Z,20.55
2023-02-18T12:35:13.441Z,20.57
2023-02-18T12:38:39.630Z,20.34
2023-02-18T12:42:09.972Z,20.12
2023-02-18T12:45:27.445Z,20.01
2023-02-18T12:48:29.503Z,19.92
2023-02-18T12:51:46.767Z,19.88
2023-02-18T12:55:09.336Z,19.89
2023-02-18T12:58:35.676Z,19.88
2023-02-18T13:02:23.294Z,19.88
2023-02-18T13:05:38.357Z,19.95
2023-02-18T13:08:55.783Z,19.93
2023-02-18T13:12:06.727Z,19.88
2023-02-18T13:15:17.563Z,20.02
2023-02-18T13:18:30.623Z,20.00
2023-02-18T13:21:34.028Z,20.00
2023-02-18T13:24:38.633Z,20.36
2023-02-18T13:28:15.852Z,20.71
2023-02-18T13:31:49.680Z,21.19
2023-02-18T13:35:04.929Z,21.36
2023-02-18T13:38:27.343Z,21.41
2023-02-18T13:41:29.669Z,21.32
2023-02-18T13:45:16.746Z,21.37
2023-02-18T13:48:27.037Z,21.33
2023-02-18T13:51:30.908Z,21.32
2023-02-18T13:54:37.392Z,21.23
2023-02-18T13:57:39.590Z,21.26
2023-02-18T14:00:50.054Z,21.09
2023-02-18T14:03:57.032Z,21.07
2023-02-18T14:07:26.912Z,21.09
2023-02-18T14:10:34.919Z,21.03
2023-02-18T14:13:41.055Z,20.92
2023-02-18T14:17:22.702Z,20.84
2023-02-18T14:20:29.146Z,20.82
2023-02-18T14:23:37.493Z,20.68
2023-02-18T14:26:46.026Z,20.51
2023-02-18T14:29:52.285Z,20.42
2023-02-18T14:32:59.631Z,20.34
2023-02-18T14:36:29.944Z,20.43
2023-02-18T14:39:49.777Z,20.85
2023-02-18T14:43:23.101Z,21.16
2023-02-18T14:47:01.989Z,21.31
2023-02-18T14:50:10.950Z,21.19
2023-02-18T14:53:18.753Z,20.62
2023-02-18T14:56:22.233Z,20.20
2023-02-18T14:59:29.176Z,19.96
2023-02-18T15:02:38.869Z,19.84
2023-02-18T15:05:41.114Z,19.73
2023-02-18T15:08:43.143Z,19.71
2023-02-18T15:11:53.080Z,19.58
2023-02-18T15:14:59.973Z,19.56
2023-02-18T15:18:04.984Z,19.52
2023-02-18T15:21:28.317Z,19.48
2023-02-18T15:24:39.389Z,19.51
2023-02-18T15:27:47.129Z,19.59
2023-02-18T15:30:49.526Z,19.87
2023-02-18T15:33:52.836Z,20.04
2023-02-18T15:36:55.946Z,20.57
2023-02-18T15:39:58.606Z,20.98
2023-02-18T15:43:04.186Z,21.19
2023-02-18T15:46:14.369Z,21.45
2023-02-18T15:49:23.316Z,21.44
2023-02-18T15:52:31.906Z,21.52
2023-02-18T15:55:38.737Z,21.38
2023-02-18T15:58:40.858Z,21.46
2023-02-18T16:01:42.889Z,21.50
2023-02-18T16:04:51.377Z,21.51
2023-02-18T16:07:57.377Z,21.40
2023-02-18T16:11:07.679Z,21.14
2023-02-18T16:14:31.811Z,21.05
2023-02-18T16:17:33.993Z,21.12
2023-02-18T16:20:38.101Z,21.34
2023-02-18T16:23:45.665Z,21.80
2023-02-18T16:26:47.707Z,22.14
2023-02-18T16:29:51.999Z,22.25
2023-02-18T16:32:54.969Z,22.26
2023-02-18T16:35:57.912Z,22.31
2023-02-18T16:39:02.212Z,22.26
2023-02-18T16:42:10.485Z,22.24
2023-02-18T16:45:13.386Z,21.95
2023-02-18T16:48:24.564Z,21.80
2023-02-18T16:51:31.847Z,21.71
2023-02-18T16:54:36.470Z,22.13
2023-02-18T16:57:39.912Z,22.61
2023-02-18T17:00:43.637Z,22.89
2023-02-18T17:03:47.871Z,22.90
2023-02-18T17:06:51.146Z,22.68
2023-02-18T17:09:59.788Z,22.26
2023-02-18T17:13:01.771Z,21.90
2023-02-18T17:16:03.896Z,21.72
2023-02-18T17:19:06.298Z,21.59
2023-02-18T17:22:10.258Z,21.47
2023-02-18T17:25:20.606Z,21.18
2023-02-18T17:28:23.344Z,20.67
2023-02-18T17:31:29.046Z,20.38
2023-02-18T17:34:32.795Z,20.23
2023-02-18T17:37:34.809Z,20.01
2023-02-18T17:40:36.858Z,19.94
2023-02-18T17:43:39.329Z,19.81
2023-02-18T17:46:44.876Z,19.74
2023-02-18T17:49:47.139Z,19.71
2023-02-18T17:52:49.323Z,19.68
2023-02-18T17:55:51.896Z,19.66
2023-02-18T17:58:53.889Z,19.61
2023-02-18T18:01:56.027Z,19.60
2023-02-18T18:04:58.132Z,19.43
2023-02-18T18:08:01.772Z,19.52
2023-02-18T18:11:06.048Z,19.37
2023-02-18T18:14:11.784Z,19.36
2023-02-18T18:17:14.610Z,19.27
2023-02-18T18:20:17.774Z,19.24
2023-02-18T18:23:21.830Z,19.09
2023-02-18T18:26:30.758Z,19.08
2023-02-18T18:29:33.678Z,19.21
2023-02-18T18:32:36.887Z,19.44
2023-02-18T18:35:38.939Z,19.89
2023-02-18T18:42:12.542Z,20.33
2023-02-18T18:45:22.718Z,20.42
2023-02-18T18:48:27.143Z,20.47
2023-02-18T18:51:32.720Z,20.29
2023-02-18T18:54:37.199Z,20.25
2023-02-18T18:57:39.248Z,20.19
2023-02-18T19:00:43.930Z,20.38
2023-02-18T19:03:47.406Z,20.48
2023-02-18T19:06:51.933Z,20.28
2023-02-18T19:09:53.920Z,20.24
2023-02-18T19:13:05.118Z,20.10
2023-02-18T19:16:17.269Z,20.01
2023-02-18T19:19:21.133Z,19.81
2023-02-18T19:22:23.607Z,19.85
2023-02-18T19:25:27.512Z,19.80
2023-02-18T19:28:29.669Z,19.68
2023-02-18T19:31:31.780Z,19.55
2023-02-18T19:34:36.993Z,19.52
2023-02-18T19:37:39.370Z,19.48
2023-02-18T19:40:42.336Z,19.36
2023-02-18T19:43:46.995Z,19.19
2023-02-18T19:46:49.126Z,19.10
2023-02-18T19:49:53.152Z,19.11
2023-02-18T19:52:56.302Z,18.94
2023-02-18T19:56:07.354Z,19.01
2023-02-18T19:59:09.376Z,18.89
2023-02-18T20:02:23.264Z,18.92
2023-02-18T20:05:25.624Z,18.78
2023-02-18T20:08:27.778Z,18.92
2023-02-18T20:11:32.739Z,19.16
2023-02-18T20:14:37.415Z,19.22
2023-02-18T20:17:39.651Z,19.59
2023-02-18T20:20:49.120Z,19.97
2023-02-18T20:23:54.890Z,20.72
2023-02-18T20:26:58.056Z,20.77
2023-02-18T20:30:01.080Z,20.89
2023-02-18T20:33:04.624Z,21.17
2023-02-18T20:36:08.707Z,21.16
2023-02-18T20:39:16.269Z,21.02
2023-02-18T20:42:18.848Z,20.86
2023-02-18T20:45:26.178Z,20.79
2023-02-18T20:48:28.280Z,20.70
2023-02-18T20:51:30.358Z,20.74
2023-02-18T20:54:32.582Z,20.67
2023-02-18T20:57:35.707Z,20.55
2023-02-18T21:00:37.867Z,20.28
2023-02-18T21:03:41.003Z,20.10
2023-02-18T21:06:45.641Z,20.20
2023-02-18T21:09:55.427Z,20.10
2023-02-18T21:12:57.463Z,20.20
2023-02-18T21:16:02.832Z,20.31
2023-02-18T21:19:07.465Z,20.35
2023-02-18T21:22:09.452Z,20.32
2023-02-18T21:25:14.114Z,20.44
2023-02-18T21:28:16.139Z,20.34
2023-02-18T21:31:22.631Z,20.25
2023-02-18T21:34:26.114Z,20.02
2023-02-18T21:37:28.426Z,19.91
2023-02-18T21:40:31.307Z,19.77
2023-02-18T21:43:33.505Z,19.71
2023-02-18T21:46:37.399Z,19.69
2023-02-18T21:49:39.563Z,19.48
2023-02-18T21:52:43.035Z,19.53
2023-02-18T21:55:55.317Z,19.50
2023-02-18T21:59:04.467Z,19.38
2023-02-18T22:02:12.803Z,19.27
2023-02-18T22:05:14.902Z,19.23
2023-02-18T22:08:18.760Z,19.08
2023-02-18T22:11:20.837Z,19.11
2023-02-18T22:14:23.130Z,19.06
2023-02-18T22:17:25.263Z,18.99
2023-02-18T22:20:27.442Z,18.94
2023-02-18T22:23:31.463Z,18.92
2023-02-18T22:26:34.220Z,18.89
2023-02-18T22:29:36.177Z,18.77
2023-02-18T22:32:39.254Z,18.73
2023-02-18T22:35:41.295Z,18.74
2023-02-18T22:38:43.583Z,18.71
2023-02-18T22:41:45.725Z,18.51
2023-02-18T22:44:47.779Z,18.53
2023-02-18T22:47:49.789Z,18.51
2023-02-18T22:50:51.872Z,18.49
2023-02-18T22:53:56.356Z,18.41
2023-02-18T22:56:58.416Z,18.39
2023-02-18T23:00:00.396Z,18.12
2023-02-18T23:03:02.496Z,18.17
2023-02-18T23:06:06.124Z,18.07
2023-02-18T23:09:11.569Z,18.11
2023-02-18T23:12:13.629Z,18.12
2023-02-18T23:15:16.962Z,17.99
2023-02-18T23:18:18.993Z,17.95
2023-02-18T23:21:21.348Z,17.91
2023-02-18T23:24:23.527Z,17.93
2023-02-18T23:27:26.120Z,17.94
2023-02-18T23:30:28.228Z,17.88
2023-02-18T23:33:30.297Z,17.99
2023-02-18T23:36:34.656Z,17.99
2023-02-18T23:39:37.577Z,17.80
2023-02-18T23:42:39.633Z,17.61
2023-02-18T23:45:44.013Z,17.63
2023-02-18T23:48:46.225Z,17.66
2023-02-18T23:51:49.505Z,17.68
2023-02-18T23:54:51.520Z,17.60
2023-02-18T23:57:53.487Z,17.73
